Time;durP1;ratioP1;P1;durP2;ratioP2;P2;SDS_P1;SDS_P2;PMS_P1;PMS_P2;Temp;Humidity;BMP_temperature;BMP_pressure;BME280_temperature;BME280_humidity;BME280_pressure;Samples;Min_cycle;Max_cycle;Signal;HPM_P1;HPM_P2
2023/08/22 04:38:13;;;;;;;;;;;;;;;28.54;61.07;97212.41;4214368;27;10384;-65
2023/08/22 04:40:16;;;;;;;;;;;;;;;28.81;60.58;97217.13;4214690;28;5818;-65
2023/08/22 04:42:19;;;;;;;;;;;;;;;29.02;59.82;97223.03;4214397;28;5700;-65
2023/08/22 04:44:21;;;;;;;;;;;;;;;29.17;59.41;97214.56;4217630;28;7815;-65
2023/08/22 04:46:24;;;;;;;;;;;;;;;29.30;58.74;97221.91;4213773;28;5795;-65
2023/08/22 04:48:29;;;;;;;;;;;;;;;29.39;58.48;97217.38;4213795;28;5765;-66
2023/08/22 04:50:32;;;;;;;;;;;;;;;29.48;57.99;97212.84;4214375;28;5785;-65
2023/08/22 04:52:35;;;;;;;;;;;;;;;29.56;57.53;97212.13;4214513;28;5401;-66
2023/08/22 04:54:39;;;;;;;;;;;;;;;29.61;57.18;97211.22;4206905;28;5792;-66
2023/08/22 04:56:42;;;;;;;;;;;;;;;29.67;56.81;97217.34;4212520;28;5800;-64
2023/08/22 04:58:45;;;;;;;;;;;;;;;29.69;56.52;97213.22;4205616;28;6541;-64
2023/08/22 05:00:47;;;;;;;;;;;;;;;29.73;56.19;97208.75;4210185;28;5693;-65
2023/08/22 05:02:50;;;;;;;;;;;;;;;29.75;55.56;97214.72;4209588;28;5094;-65
2023/08/22 05:04:53;;;;;;;;;;;;;;;29.77;55.62;97212.47;4210497;28;5840;-65
2023/08/22 05:06:55;;;;;;;;;;;;;;;29.79;55.15;97213.00;4206631;28;5680;-64
2023/08/22 05:08:58;;;;;;;;;;;;;;;29.79;54.68;97213.00;4213655;28;5903;-66
2023/08/22 05:11:02;;;;;;;;;;;;;;;29.81;54.57;97212.69;4202986;28;5977;-65
2023/08/22 05:13:05;;;;;;;;;;;;;;;29.83;54.35;97215.91;4208333;28;6382;-65
2023/08/22 05:15:09;;;;;;;;;;;;;;;29.83;53.97;97222.16;4214170;28;5805;-65
2023/08/22 05:17:12;;;;;;;;;;;;;;;29.85;54.02;97230.03;4209841;28;5812;-65
2023/08/22 05:19:15;;;;;;;;;;;;;;;29.85;53.83;97219.13;4212697;28;5715;-65
2023/08/22 05:21:18;;;;;;;;;;;;;;;29.84;53.89;97223.78;4213978;28;5781;-65
2023/08/22 05:23:22;;;;;;;;;;;;;;;29.85;53.66;97230.03;4213013;28;5933;-65
2023/08/22 05:25:24;;;;;;;;;;;;;;;29.86;53.59;97231.63;4198729;28;5704;-66
2023/08/22 05:27:29;;;;;;;;;;;;;;;29.85;53.39;97230.03;4199330;28;6426;-65
2023/08/22 05:29:32;;;;;;;;;;;;;;;29.86;53.29;97231.63;4196049;28;5832;-66
2023/08/22 05:31:34;;;;;;;;;;;;;;;29.86;53.31;97234.34;4200266;28;5921;-66
2023/08/22 05:33:37;;;;;;;;;;;;;;;29.87;53.13;97241.41;4202198;28;6443;-65
2023/08/22 05:35:41;;;;;;;;;;;;;;;29.88;52.89;97239.50;4203468;28;5788;-66
2023/08/22 05:37:43;;;;;;;;;;;;;;;29.87;52.79;97241.41;4196756;28;5857;-66
2023/08/22 05:39:46;;;;;;;;;;;;;;;29.87;52.97;97230.53;4186149;28;5836;-65
2023/08/22 05:41:49;;;;;;;;;;;;;;;29.88;52.80;97232.13;4197386;28;5954;-64
2023/08/22 05:43:54;;;;;;;;;;;;;;;29.87;52.55;97227.78;4193137;28;6173;-64
2023/08/22 05:45:56;;;;;;;;;;;;;;;29.88;52.46;97237.59;4193760;28;5686;-70
2023/08/22 05:47:59;;;;;;;;;;;;;;;29.88;52.44;97240.31;4202702;28;5677;-70
2023/08/22 05:50:03;;;;;;;;;;;;;;;29.88;52.27;97240.31;4196212;28;5717;-70
2023/08/22 05:52:06;;;;;;;;;;;;;;;29.88;52.00;97234.84;4202525;28;5691;-70
2023/08/22 05:54:09;;;;;;;;;;;;;;;29.88;52.11;97239.50;4194652;28;5769;-71
2023/08/22 05:56:12;;;;;;;;;;;;;;;29.89;51.74;97241.09;4202585;28;5694;-71
2023/08/22 05:58:15;;;;;;;;;;;;;;;29.86;51.67;97243.34;4202470;28;6379;-71
2023/08/22 06:00:20;;;;;;;;;;;;;;;29.88;51.33;97250.41;4202608;28;5678;-70
2023/08/22 06:02:22;;;;;;;;;;;;;;;29.90;51.25;97248.16;4202599;28;5717;-70
2023/08/22 06:04:26;;;;;;;;;;;;;;;29.92;50.78;97248.69;4202586;28;5701;-70
2023/08/22 06:06:29;;;;;;;;;;;;;;;29.94;50.75;97252.72;4202803;28;5919;-69
2023/08/22 06:08:32;;;;;;;;;;;;;;;29.98;50.64;97253.72;4202358;28;5818;-71
2023/08/22 06:10:34;;;;;;;;;;;;;;;30.02;50.38;97252.00;4202642;28;6392;-70
2023/08/22 06:12:37;;;;;;;;;;;;;;;30.06;50.52;97253.03;4189147;28;5806;-70
2023/08/22 06:14:40;;;;;;;;;;;;;;;30.09;49.96;97252.41;4189586;28;5917;-71
2023/08/22 06:16:43;;;;;;;;;;;;;;;30.14;50.23;97256.94;4202762;28;6529;-70
2023/08/22 06:18:46;;;;;;;;;;;;;;;30.17;49.72;97253.59;4202411;28;5674;-70
2023/08/22 06:20:49;;;;;;;;;;;;;;;30.21;49.78;97259.22;4202534;28;5806;-70
2023/08/22 06:22:52;;;;;;;;;;;;;;;30.21;49.83;97267.41;4202432;28;5708;-70
2023/08/22 06:24:55;;;;;;;;;;;;;;;30.24;49.53;97264.06;4202322;28;5679;-70
2023/08/22 06:26:58;;;;;;;;;;;;;;;30.26;49.47;97261.84;4202057;28;5932;-70
2023/08/22 06:29:02;;;;;;;;;;;;;;;30.27;49.22;97258.00;4202195;28;5721;-71
2023/08/22 06:31:07;;;;;;;;;;;;;;;30.29;49.00;97255.78;4202267;28;5691;-71
2023/08/22 06:33:11;;;;;;;;;;;;;;;30.29;48.73;97255.78;4202326;28;5689;-71
2023/08/22 06:35:14;;;;;;;;;;;;;;;30.31;48.95;97259.78;4202095;28;5716;-70
2023/08/22 06:37:17;;;;;;;;;;;;;;;30.32;48.60;97257.88;4201877;28;5681;-70
2023/08/22 06:39:20;;;;;;;;;;;;;;;30.32;48.51;97261.41;4202207;28;5784;-71
2023/08/22 06:41:23;;;;;;;;;;;;;;;30.33;48.19;97256.75;4201829;28;5740;-70
2023/08/22 06:43:26;;;;;;;;;;;;;;;30.34;48.42;97261.09;4201814;28;5753;-71
2023/08/22 06:45:29;;;;;;;;;;;;;;;30.34;47.96;97264.63;4201878;28;5848;-71
2023/08/22 06:47:32;;;;;;;;;;;;;;;30.35;48.01;97260.81;4201738;28;5808;-70
2023/08/22 06:49:36;;;;;;;;;;;;;;;30.36;47.69;97267.06;4200978;28;5681;-70
2023/08/22 06:51:39;;;;;;;;;;;;;;;30.36;47.67;97273.31;4201817;28;5750;-71
2023/08/22 06:53:42;;;;;;;;;;;;;;;30.35;47.48;97263.53;4201910;28;5717;-70
2023/08/22 06:55:46;;;;;;;;;;;;;;;30.35;47.47;97271.72;4202216;28;5706;-70
2023/08/22 06:57:49;;;;;;;;;;;;;;;30.36;47.48;97277.97;4201426;28;5865;-69
2023/08/22 06:59:52;;;;;;;;;;;;;;;30.36;47.54;97280.69;4201873;28;5839;-69
2023/08/22 07:01:55;;;;;;;;;;;;;;;30.35;47.02;97276.34;4201822;28;5701;-69
2023/08/22 07:03:58;;;;;;;;;;;;;;;30.34;47.13;97274.72;4201950;28;5777;-70
2023/08/22 07:06:19;;;;;;;;;;;;;;;30.34;47.33;97274.72;4186705;28;5710;-70
2023/08/22 07:08:22;;;;;;;;;;;;;;;30.33;47.44;97273.13;4201764;28;5711;-70
2023/08/22 07:10:25;;;;;;;;;;;;;;;30.31;47.23;97278.88;4201677;28;5690;-70
2023/08/22 07:12:28;;;;;;;;;;;;;;;30.30;47.45;97277.28;4201681;28;5779;-71
2023/08/22 07:14:31;;;;;;;;;;;;;;;30.31;47.24;97281.59;4201700;28;5686;-70
2023/08/22 07:16:34;;;;;;;;;;;;;;;30.30;47.22;97281.91;4201746;28;5689;-70
2023/08/22 07:18:37;;;;;;;;;;;;;;;30.30;46.85;97281.91;4201614;28;5863;-70
2023/08/22 07:20:40;;;;;;;;;;;;;;;30.29;47.06;97274.84;4201587;28;5686;-70
2023/08/22 07:22:44;;;;;;;;;;;;;;;30.28;46.96;97284.97;4201241;28;5753;-70
2023/08/22 07:24:47;;;;;;;;;;;;;;;30.27;46.77;97279.81;4201275;28;5764;-71
2023/08/22 07:26:50;;;;;;;;;;;;;;;30.26;46.78;97284.47;4200936;28;5679;-70
2023/08/22 07:28:53;;;;;;;;;;;;;;;30.24;46.67;97283.13;4200846;28;5693;-70
2023/08/22 07:30:56;;;;;;;;;;;;;;;30.23;46.64;97281.53;4201277;28;5713;-70
2023/08/22 07:32:59;;;;;;;;;;;;;;;30.24;46.70;97288.59;4201160;28;5914;-71
2023/08/22 07:35:02;;;;;;;;;;;;;;;30.26;46.54;97289.13;4201339;28;5712;-70
2023/08/22 07:37:05;;;;;;;;;;;;;;;30.26;46.49;97297.28;4201048;28;5682;-70
2023/08/22 07:39:09;;;;;;;;;;;;;;;30.25;46.56;97292.97;4201104;28;5690;-72
2023/08/22 07:41:12;;;;;;;;;;;;;;;30.26;46.32;97294.56;4201264;28;5694;-70
2023/08/22 07:43:15;;;;;;;;;;;;;;;30.25;46.30;97296.50;4200819;28;5694;-70
2023/08/22 07:45:18;;;;;;;;;;;;;;;30.26;46.18;97297.28;4200812;28;5690;-71
2023/08/22 07:47:21;;;;;;;;;;;;;;;30.25;45.90;97296.50;4201104;28;5873;-71
2023/08/22 07:49:25;;;;;;;;;;;;;;;30.26;45.70;97294.56;4200597;28;5757;-70
2023/08/22 07:51:28;;;;;;;;;;;;;;;30.25;45.46;97291.03;4200744;28;5867;-70
2023/08/22 07:53:32;;;;;;;;;;;;;;;30.25;45.48;97288.31;4200840;28;5773;-70
2023/08/22 07:55:36;;;;;;;;;;;;;;;30.26;44.92;97294.56;4200887;28;6384;-70
2023/08/22 07:57:39;;;;;;;;;;;;;;;30.28;45.08;97290.41;4200178;28;5780;-69
2023/08/22 07:59:42;;;;;;;;;;;;;;;30.30;44.71;97293.63;4200936;28;5694;-70
2023/08/22 08:01:45;;;;;;;;;;;;;;;30.31;44.60;97278.06;4200595;28;5697;-70
2023/08/22 08:03:48;;;;;;;;;;;;;;;30.31;44.76;97286.25;4200729;28;5706;-70
2023/08/22 08:05:52;;;;;;;;;;;;;;;30.32;44.61;97287.88;4200821;28;5714;-70
2023/08/22 08:07:55;;;;;;;;;;;;;;;30.29;44.43;97283.03;4200970;28;5686;-71
2023/08/22 08:09:58;;;;;;;;;;;;;;;30.28;44.67;97289.59;4200951;28;5681;-71
2023/08/22 08:12:03;;;;;;;;;;;;;;;30.28;44.66;97281.44;4200695;28;5717;-71
2023/08/22 08:14:07;;;;;;;;;;;;;;;30.29;44.06;97283.84;4200535;28;5697;-71
2023/08/22 08:16:10;;;;;;;;;;;;;;;30.28;44.26;97281.44;4200814;28;5702;-71
2023/08/22 08:18:15;;;;;;;;;;;;;;;30.28;44.52;97284.16;4200755;28;5698;-71
2023/08/22 08:20:18;;;;;;;;;;;;;;;30.29;44.20;97285.75;4200853;28;5807;-71
2023/08/22 08:22:21;;;;;;;;;;;;;;;30.31;44.00;97292.50;4200483;28;5774;-71
2023/08/22 08:24:24;;;;;;;;;;;;;;;30.34;44.29;97286.44;4200900;28;5701;-70
2023/08/22 08:26:27;;;;;;;;;;;;;;;30.36;43.91;97289.69;4200561;28;5781;-70
2023/08/22 08:28:33;;;;;;;;;;;;;;;30.37;44.00;97295.94;4200123;28;5756;-71
2023/08/22 08:30:35;;;;;;;;;;;;;;;30.38;43.79;97292.09;4200959;28;6378;-71
2023/08/22 08:32:39;;;;;;;;;;;;;;;30.42;43.91;97293.09;4200558;28;5718;-71
2023/08/22 08:34:42;;;;;;;;;;;;;;;30.42;43.79;97291.16;4200859;28;5689;-71
2023/08/22 08:36:45;;;;;;;;;;;;;;;30.45;43.54;97295.19;4200738;28;5752;-71
2023/08/22 08:38:47;;;;;;;;;;;;;;;30.45;43.04;97292.47;4200408;28;5703;-71
2023/08/22 08:40:52;;;;;;;;;;;;;;;30.47;43.03;97290.25;4200682;28;5082;-69
2023/08/22 08:42:55;;;;;;;;;;;;;;;30.51;43.16;97282.25;4200130;28;5836;-70
2023/08/22 08:45:00;;;;;;;;;;;;;;;30.54;43.49;97287.88;4200516;28;5773;-69
2023/08/22 08:47:04;;;;;;;;;;;;;;;30.55;43.01;97281.31;4200246;28;5718;-71
2023/08/22 08:49:07;;;;;;;;;;;;;;;30.58;43.17;97277.13;4200108;28;5855;-71
2023/08/22 08:51:10;;;;;;;;;;;;;;;30.60;43.00;97280.38;4200646;28;5851;-71
2023/08/22 08:53:14;;;;;;;;;;;;;;;30.62;43.23;97280.88;4200410;28;5702;-71
2023/08/22 08:55:17;;;;;;;;;;;;;;;30.64;42.89;97281.41;4200538;28;5734;-70
2023/08/22 08:57:20;;;;;;;;;;;;;;;30.65;42.90;97283.81;4200495;28;5493;-70
2023/08/22 08:59:24;;;;;;;;;;;;;;;30.68;43.15;97274.19;4200013;28;5730;-72
2023/08/22 09:01:30;;;;;;;;;;;;;;;30.68;42.92;97275.00;4200442;28;5692;-70
2023/08/22 09:03:33;;;;;;;;;;;;;;;30.68;42.88;97269.53;4200353;28;5709;-71
2023/08/22 09:05:36;;;;;;;;;;;;;;;30.71;42.80;97284.50;4200864;28;5698;-70
2023/08/22 09:07:39;;;;;;;;;;;;;;;30.71;42.99;97279.84;4200652;28;5706;-70
2023/08/22 09:09:42;;;;;;;;;;;;;;;30.72;42.93;97280.66;4200408;28;5836;-70
2023/08/22 09:11:46;;;;;;;;;;;;;;;30.74;43.14;97277.63;4200477;28;5701;-70
2023/08/22 09:13:48;;;;;;;;;;;;;;;30.76;43.38;97278.09;4202068;28;5718;-71
2023/08/22 09:16:00;;;;;;;;;;;;;;;30.79;43.63;97277.47;4203554;28;7036;-71
2023/08/22 09:18:04;;;;;;;;;;;;;;;30.83;44.17;97278.47;4203450;28;5690;-71
2023/08/22 09:20:10;;;;;;;;;;;;;;;30.84;43.91;97274.63;4203332;28;6499;-71
2023/08/22 09:22:14;;;;;;;;;;;;;;;30.85;44.47;97278.97;4195574;28;5698;-71
2023/08/22 09:24:17;;;;;;;;;;;;;;;30.84;44.32;97278.16;4203408;28;5681;-71
2023/08/22 09:26:22;;;;;;;;;;;;;;;30.84;44.32;97271.91;4202975;28;5694;-71
2023/08/22 09:28:26;;;;;;;;;;;;;;;30.80;44.21;97266.25;4203281;28;5679;-71
2023/08/22 09:30:29;;;;;;;;;;;;;;;30.81;44.08;97262.41;4203538;28;6023;-72
2023/08/22 09:32:33;;;;;;;;;;;;;;;30.85;44.46;97262.59;4203135;28;5690;-71
2023/08/22 09:34:38;;;;;;;;;;;;;;;30.87;44.57;97271.25;4203060;28;5681;-71
2023/08/22 09:36:46;;;;;;;;;;;;;;;30.88;44.36;97275.59;4202850;28;5690;-71
2023/08/22 09:38:54;;;;;;;;;;;;;;;30.89;44.49;97264.38;4202996;28;7057;-72
2023/08/22 09:40:57;;;;;;;;;;;;;;;30.90;44.69;97271.44;4202955;28;5784;-71
2023/08/22 09:42:59;;;;;;;;;;;;;;;30.91;44.75;97283.97;4202876;28;5869;-71
2023/08/22 09:45:05;;;;;;;;;;;;;;;30.91;44.85;97269.50;4203107;28;5881;-72
2023/08/22 09:47:08;;;;;;;;;;;;;;;30.93;44.99;97270.03;4202903;28;5878;-72
2023/08/22 09:49:15;;;;;;;;;;;;;;;30.94;44.87;97268.91;4202884;28;5741;-71
2023/08/22 09:51:21;;;;;;;;;;;;;;;30.96;44.89;97270.19;4202961;28;5698;-71
2023/08/22 09:53:25;;;;;;;;;;;;;;;30.97;45.29;97262.81;4202752;28;5773;-71
2023/08/22 09:55:29;;;;;;;;;;;;;;;30.96;45.02;97269.41;4202904;28;5773;-71
2023/08/22 09:57:33;;;;;;;;;;;;;;;30.97;45.09;97263.63;4202461;28;5701;-71
2023/08/22 09:59:38;;;;;;;;;;;;;;;30.99;44.87;97263.31;4202435;28;5695;-70
2023/08/22 10:01:42;;;;;;;;;;;;;;;30.99;44.82;97260.56;4202660;28;6388;-70
2023/08/22 10:03:47;;;;;;;;;;;;;;;30.98;44.91;97259.75;4202858;28;6375;-70
2023/08/22 10:05:52;;;;;;;;;;;;;;;30.99;45.04;97264.09;4202442;28;5706;-70
2023/08/22 10:07:57;;;;;;;;;;;;;;;30.97;44.31;97263.63;4202938;28;5690;-70
2023/08/22 10:09:59;;;;;;;;;;;;;;;30.96;44.06;97248.34;4202315;28;7272;-70
2023/08/22 10:12:07;;;;;;;;;;;;;;;30.95;44.16;97256.88;4202847;28;5690;-70
2023/08/22 10:14:13;;;;;;;;;;;;;;;30.95;44.08;97251.41;4202502;28;5705;-69
2023/08/22 10:16:16;;;;;;;;;;;;;;;30.97;43.47;97243.69;4202557;28;5701;-70
2023/08/22 10:18:24;;;;;;;;;;;;;;;30.99;43.57;97236.00;4202551;28;5910;-70
2023/08/22 10:20:27;;;;;;;;;;;;;;;31.02;43.90;97238.09;4202606;28;5685;-70
2023/08/22 10:22:32;;;;;;;;;;;;;;;31.05;43.86;97237.47;4202547;28;5717;-70
2023/08/22 10:24:37;;;;;;;;;;;;;;;31.06;43.43;97236.38;4202626;28;5677;-70
2023/08/22 10:26:59;;;;;;;;;;;;;;;31.05;43.22;97242.94;4202424;28;5681;-70
2023/08/22 10:29:16;;;;;;;;;;;;;;;31.05;43.12;97234.75;4202205;28;5697;-71
2023/08/22 10:31:19;;;;;;;;;;;;;;;31.08;42.66;97222.38;4202360;28;5693;-70
2023/08/22 10:33:28;;;;;;;;;;;;;;;31.09;43.01;97230.25;4202147;28;5749;-71
2023/08/22 10:35:38;;;;;;;;;;;;;;;31.11;42.96;97222.56;4202443;28;5792;-71
2023/08/22 10:37:46;;;;;;;;;;;;;;;31.13;42.68;97220.31;4201943;28;5781;-71
2023/08/22 10:39:50;;;;;;;;;;;;;;;31.17;42.71;97226.78;4202364;28;5693;-70
2023/08/22 10:41:57;;;;;;;;;;;;;;;31.21;42.67;97232.44;4202191;28;5753;-70
2023/08/22 10:44:02;;;;;;;;;;;;;;;31.22;42.46;97223.91;4202118;28;5705;-71
2023/08/22 10:46:05;;;;;;;;;;;;;;;31.22;42.65;97218.44;4202060;28;5689;-70
2023/08/22 10:48:11;;;;;;;;;;;;;;;31.26;42.24;97221.38;4202190;28;5764;-70
2023/08/22 10:50:14;;;;;;;;;;;;;;;31.29;42.23;97218.81;4202357;28;6221;-70
2023/08/22 10:52:26;;;;;;;;;;;;;;;31.32;41.80;97211.09;4202083;28;5706;-70
2023/08/22 10:54:30;;;;;;;;;;;;;;;31.33;41.73;97212.69;4201985;28;5785;-70
2023/08/22 10:56:35;;;;;;;;;;;;;;;31.36;41.50;97212.06;4201591;28;5709;-70
2023/08/22 10:58:41;;;;;;;;;;;;;;;31.38;41.64;97207.09;4201687;28;5678;-70
2023/08/22 11:00:45;;;;;;;;;;;;;;;31.40;41.42;97202.13;4202053;28;5689;-71
2023/08/22 11:02:50;;;;;;;;;;;;;;;31.41;41.00;97203.72;4201803;28;5681;-70
2023/08/22 11:04:56;;;;;;;;;;;;;;;31.42;40.87;97199.88;4201974;28;5772;-71
2023/08/22 11:06:59;;;;;;;;;;;;;;;31.44;40.91;97195.69;4201708;28;5825;-70
2023/08/22 11:09:04;;;;;;;;;;;;;;;31.45;40.77;97183.66;4201246;28;5686;-70
2023/08/22 11:11:07;;;;;;;;;;;;;;;31.49;40.14;97189.28;4201576;28;7149;-70
2023/08/22 11:13:12;;;;;;;;;;;;;;;31.54;40.08;97183.66;4201414;28;5689;-69
2023/08/22 11:15:15;;;;;;;;;;;;;;;31.57;40.21;97180.28;4201271;28;7711;-70
2023/08/22 11:17:20;;;;;;;;;;;;;;;31.59;39.97;97178.84;4201476;28;5695;-70
2023/08/22 11:19:23;;;;;;;;;;;;;;;31.59;40.14;97183.50;4201401;28;5705;-70
2023/08/22 11:21:27;;;;;;;;;;;;;;;31.61;39.68;97177.75;4201287;28;5678;-71
2023/08/22 11:23:31;;;;;;;;;;;;;;;31.61;40.01;97181.28;4201457;28;5689;-70
2023/08/22 11:25:35;;;;;;;;;;;;;;;31.64;39.24;97175.16;4201537;28;5674;-70
2023/08/22 11:27:38;;;;;;;;;;;;;;;31.66;39.39;97169.38;4201108;28;5673;-72
2023/08/22 11:29:44;;;;;;;;;;;;;;;31.67;39.67;97173.72;4201080;28;5674;-71
2023/08/22 11:31:48;;;;;;;;;;;;;;;31.67;39.63;97179.19;4201370;28;5863;-70
2023/08/22 11:33:52;;;;;;;;;;;;;;;31.68;39.70;97167.13;4201323;28;5813;-71
2023/08/22 11:35:55;;;;;;;;;;;;;;;31.69;39.97;97171.47;4200610;28;5685;-71
2023/08/22 11:37:58;;;;;;;;;;;;;;;31.71;39.80;97170.00;4200742;28;5670;-70
2023/08/22 11:40:04;;;;;;;;;;;;;;;31.72;39.87;97168.91;4200882;28;5722;-73
2023/08/22 11:42:07;;;;;;;;;;;;;;;31.73;39.70;97167.78;4201276;28;5669;-71
2023/08/22 11:44:13;;;;;;;;;;;;;;;31.74;39.63;97168.59;4200832;28;5689;-71
2023/08/22 11:46:20;;;;;;;;;;;;;;;31.75;39.52;97165.56;4201302;28;6398;-72
2023/08/22 11:48:24;;;;;;;;;;;;;;;31.76;39.56;97163.63;4201227;28;5774;-73
2023/08/22 11:50:28;;;;;;;;;;;;;;;31.77;39.86;97163.28;4200875;28;6386;-71
2023/08/22 11:52:31;;;;;;;;;;;;;;;31.82;40.03;97156.84;4200883;28;5701;-71
2023/08/22 11:54:34;;;;;;;;;;;;;;;31.84;39.79;97163.63;4200909;28;6859;-73
2023/08/22 11:56:38;;;;;;;;;;;;;;;31.88;40.16;97157.50;4200806;28;5693;-72
2023/08/22 11:58:49;;;;;;;;;;;;;;;31.89;39.63;97150.91;4200683;28;5815;-71
2023/08/22 12:00:55;;;;;;;;;;;;;;;31.90;40.30;97150.59;4201026;28;5686;-70
2023/08/22 12:03:01;;;;;;;;;;;;;;;31.91;39.76;97154.94;4201377;28;5682;-76
2023/08/22 12:05:04;;;;;;;;;;;;;;;31.93;40.00;97154.59;4200860;28;6506;-70
2023/08/22 12:07:07;;;;;;;;;;;;;;;31.94;40.20;97150.75;4201124;28;5671;-75
2023/08/22 12:09:14;;;;;;;;;;;;;;;31.96;40.00;97148.50;4201172;28;5830;-76
2023/08/22 12:11:25;;;;;;;;;;;;;;;31.98;40.29;97154.47;4201219;28;6360;-76
2023/08/22 12:13:29;;;;;;;;;;;;;;;32.01;39.83;97151.06;4200787;28;6375;-74
2023/08/22 12:15:32;;;;;;;;;;;;;;;32.03;40.26;97149.59;4201056;28;6270;-75
2023/08/22 12:17:35;;;;;;;;;;;;;;;32.03;40.17;97146.06;4201500;28;5703;-75
2023/08/22 12:19:39;;;;;;;;;;;;;;;32.04;40.02;97144.94;4199676;28;5811;-75
2023/08/22 12:21:42;;;;;;;;;;;;;;;32.05;40.25;97136.44;4201316;28;5693;-75
2023/08/22 12:23:45;;;;;;;;;;;;;;;32.07;40.23;97144.31;4200996;28;5696;-74
2023/08/22 12:25:48;;;;;;;;;;;;;;;32.08;40.16;97130.31;4201104;28;5697;-74
2023/08/22 12:27:52;;;;;;;;;;;;;;;32.09;40.27;97126.44;4200368;28;5698;-75
2023/08/22 12:29:56;;;;;;;;;;;;;;;32.10;40.04;97124.53;4200932;28;5809;-76
2023/08/22 12:31:59;;;;;;;;;;;;;;;32.11;40.08;97126.94;4200971;28;5765;-75
2023/08/22 12:34:02;;;;;;;;;;;;;;;32.14;39.84;97122.72;4200929;28;5702;-76
2023/08/22 12:36:07;;;;;;;;;;;;;;;32.18;40.11;97120.19;4201089;28;5893;-77
2023/08/22 12:38:10;;;;;;;;;;;;;;;32.19;39.96;97119.03;4200826;28;5752;-74
2023/08/22 12:40:15;;;;;;;;;;;;;;;32.20;40.24;97120.66;4201108;28;5693;-74
2023/08/22 12:42:18;;;;;;;;;;;;;;;32.21;39.61;97116.78;4201108;28;5941;-72
2023/08/22 12:44:21;;;;;;;;;;;;;;;32.26;39.66;97116.59;4200750;28;5693;-76
2023/08/22 12:46:24;;;;;;;;;;;;;;;32.28;39.96;97109.69;4201179;28;5874;-76
2023/08/22 12:48:27;;;;;;;;;;;;;;;32.29;39.52;97107.78;4201902;28;5694;-77
2023/08/22 12:50:31;;;;;;;;;;;;;;;32.30;39.51;97110.19;4204289;28;5704;-75
2023/08/22 12:52:37;;;;;;;;;;;;;;;32.31;39.62;97111.00;4204008;28;5698;-77
2023/08/22 12:54:40;;;;;;;;;;;;;;;32.31;39.75;97111.78;4204281;28;6418;-75
2023/08/22 12:56:42;;;;;;;;;;;;;;;32.33;40.03;97106.00;4203910;28;5698;-75
2023/08/22 12:58:45;;;;;;;;;;;;;;;32.33;39.45;97111.47;4203829;28;5848;-75
2023/08/22 13:00:48;;;;;;;;;;;;;;;32.34;39.51;97104.88;4203350;28;5701;-76
2023/08/22 13:02:51;;;;;;;;;;;;;;;32.37;39.72;97101.47;4203798;28;5675;-73
2023/08/22 13:04:54;;;;;;;;;;;;;;;32.38;39.35;97105.81;4203865;28;5690;-73
2023/08/22 13:06:57;;;;;;;;;;;;;;;32.39;39.62;97096.47;4204213;28;5709;-72
2023/08/22 13:09:02;;;;;;;;;;;;;;;32.39;39.85;97091.81;4204005;28;5689;-73
2023/08/22 13:11:04;;;;;;;;;;;;;;;32.42;39.88;97102.09;4203861;28;5828;-72
2023/08/22 13:13:06;;;;;;;;;;;;;;;32.45;39.84;97100.66;4203429;28;5694;-75
2023/08/22 13:15:10;;;;;;;;;;;;;;;32.50;39.43;97105.13;4203693;28;5685;-71
2023/08/22 13:17:12;;;;;;;;;;;;;;;32.53;39.60;97101.75;4203586;28;6376;-72
2023/08/22 13:19:16;;;;;;;;;;;;;;;32.54;39.00;97100.63;4203558;28;5810;-72
2023/08/22 13:21:18;;;;;;;;;;;;;;;32.52;39.29;97097.41;4203608;28;5855;-72
2023/08/22 13:23:21;;;;;;;;;;;;;;;32.51;39.17;97087.59;4203426;28;5682;-71
2023/08/22 13:25:25;;;;;;;;;;;;;;;32.52;39.35;97083.72;4203451;28;5810;-71
2023/08/22 13:27:28;;;;;;;;;;;;;;;32.55;38.99;97080.34;4203390;28;6519;-71
2023/08/22 13:29:31;;;;;;;;;;;;;;;32.55;38.82;97078.41;4203363;28;5686;-71
2023/08/22 13:31:36;;;;;;;;;;;;;;;32.57;38.55;97067.13;4203338;28;5809;-71
2023/08/22 13:33:40;;;;;;;;;;;;;;;32.59;38.51;97059.38;4203367;28;5918;-71
2023/08/22 13:35:43;;;;;;;;;;;;;;;32.61;38.56;97068.06;4203178;28;5693;-71
2023/08/22 13:37:47;;;;;;;;;;;;;;;32.63;38.31;97063.06;4203058;28;5773;-71
2023/08/22 13:39:50;;;;;;;;;;;;;;;32.66;38.30;97062.41;4203323;28;8289;-71
2023/08/22 13:41:55;;;;;;;;;;;;;;;32.65;38.09;97055.34;4203309;28;5753;-72
2023/08/22 13:43:57;;;;;;;;;;;;;;;32.64;38.35;97053.72;4203137;28;5800;-71
2023/08/22 13:45:59;;;;;;;;;;;;;;;32.68;37.97;97060.13;4203204;28;5690;-71
2023/08/22 13:48:02;;;;;;;;;;;;;;;32.70;38.20;97060.59;4203354;28;5808;-72
2023/08/22 13:50:07;;;;;;;;;;;;;;;32.68;37.83;97047.25;4203029;28;5698;-72
2023/08/22 13:52:09;;;;;;;;;;;;;;;32.70;38.08;97049.66;4186423;28;5828;-71
2023/08/22 13:54:13;;;;;;;;;;;;;;;32.70;37.76;97049.66;4195566;28;5664;-71
2023/08/22 13:56:16;;;;;;;;;;;;;;;32.72;37.67;97044.66;4194030;28;5841;-72
2023/08/22 13:58:20;;;;;;;;;;;;;;;32.72;37.86;97033.72;4205081;28;5706;-71
2023/08/22 14:00:23;;;;;;;;;;;;;;;32.77;37.46;97044.47;4201873;28;5725;-71
2023/08/22 14:02:26;;;;;;;;;;;;;;;32.77;37.84;97038.19;4202659;28;5693;-71
2023/08/22 14:04:30;;;;;;;;;;;;;;;32.78;37.68;97042.53;4197119;28;6297;-71
2023/08/22 14:06:33;;;;;;;;;;;;;;;32.79;37.41;97033.19;4197932;28;5745;-70
2023/08/22 14:08:36;;;;;;;;;;;;;;;32.78;37.33;97037.06;4207519;28;5818;-70
2023/08/22 14:10:39;;;;;;;;;;;;;;;32.77;37.31;97036.28;4202253;28;5690;-71
2023/08/22 14:12:42;;;;;;;;;;;;;;;32.80;37.25;97034.78;4200984;28;5688;-70
2023/08/22 14:14:46;;;;;;;;;;;;;;;32.81;37.76;97030.91;4191433;28;5794;-70
2023/08/22 14:16:48;;;;;;;;;;;;;;;32.85;37.45;97029.19;4203391;28;6415;-71
2023/08/22 14:18:51;;;;;;;;;;;;;;;32.86;37.28;97023.38;4201925;28;5810;-71
2023/08/22 14:20:54;;;;;;;;;;;;;;;32.86;37.25;97031.59;4196519;28;5856;-71
2023/08/22 14:22:57;;;;;;;;;;;;;;;32.86;37.40;97020.63;4190665;28;5708;-71
2023/08/22 14:25:00;;;;;;;;;;;;;;;32.86;37.21;97023.38;4193361;28;5843;-71
2023/08/22 14:27:03;;;;;;;;;;;;;;;32.89;37.52;97016.41;4194006;28;5239;-71
2023/08/22 14:29:06;;;;;;;;;;;;;;;32.92;37.51;97021.22;4193958;28;5772;-71
2023/08/22 14:31:10;;;;;;;;;;;;;;;32.94;38.03;97019.75;4193581;28;5888;-71
2023/08/22 14:33:13;;;;;;;;;;;;;;;32.96;38.03;97014.75;4192500;28;5786;-71
2023/08/22 14:35:16;;;;;;;;;;;;;;;32.96;38.70;97009.28;4194514;28;5925;-71
2023/08/22 14:37:20;;;;;;;;;;;;;;;32.97;38.75;97016.38;4200012;28;5714;-71
2023/08/22 14:39:25;;;;;;;;;;;;;;;32.96;38.59;97017.50;4200396;28;5761;-71
2023/08/22 14:41:28;;;;;;;;;;;;;;;32.98;39.11;97014.44;4192070;28;5777;-71
2023/08/22 14:43:31;;;;;;;;;;;;;;;32.97;38.96;97012.81;4200057;28;5686;-72
2023/08/22 14:45:34;;;;;;;;;;;;;;;32.97;38.80;97008.16;4200765;28;5694;-71
2023/08/22 14:47:41;;;;;;;;;;;;;;;32.95;39.07;97004.91;4201015;28;5705;-71
2023/08/22 14:49:44;;;;;;;;;;;;;;;32.98;38.47;97011.69;4201001;28;5690;-71
2023/08/22 14:51:48;;;;;;;;;;;;;;;32.98;38.34;97004.28;4200667;28;5702;-71
2023/08/22 14:53:51;;;;;;;;;;;;;;;33.00;38.74;97006.69;4200878;28;5823;-71
2023/08/22 14:55:57;;;;;;;;;;;;;;;33.03;38.35;97002.47;4200166;28;5788;-71
2023/08/22 14:58:00;;;;;;;;;;;;;;;33.06;37.90;97001.78;4195004;28;5690;-70
2023/08/22 15:00:04;;;;;;;;;;;;;;;33.08;37.70;96991.31;4200661;28;5825;-71
2023/08/22 15:02:07;;;;;;;;;;;;;;;33.08;37.53;97000.34;4200441;28;5702;-70
2023/08/22 15:04:11;;;;;;;;;;;;;;;33.07;37.15;96995.97;4200327;28;5788;-71
2023/08/22 15:06:14;;;;;;;;;;;;;;;33.07;37.50;96992.44;4192961;28;5690;-71
2023/08/22 15:08:17;;;;;;;;;;;;;;;33.07;37.08;97000.66;4200448;28;5841;-71
2023/08/22 15:10:20;;;;;;;;;;;;;;;33.07;36.80;96995.16;4199899;28;5802;-71
2023/08/22 15:12:24;;;;;;;;;;;;;;;33.06;37.02;96996.31;4199826;28;5690;-71
2023/08/22 15:14:26;;;;;;;;;;;;;;;33.05;36.96;96990.03;4199746;28;5706;-71
2023/08/22 15:16:30;;;;;;;;;;;;;;;33.05;36.69;96994.72;4200056;28;5837;-71
2023/08/22 15:18:32;;;;;;;;;;;;;;;33.05;36.19;96989.22;4200682;28;5782;-71
2023/08/22 15:20:37;;;;;;;;;;;;;;;33.04;36.06;96990.38;4200173;28;5785;-71
2023/08/22 15:22:39;;;;;;;;;;;;;;;33.03;36.57;96986.84;4200132;28;5681;-71
2023/08/22 15:24:42;;;;;;;;;;;;;;;33.03;35.81;96989.56;4200138;28;5852;-71
2023/08/22 15:26:45;;;;;;;;;;;;;;;33.03;35.47;96994.25;4200115;28;5125;-70
2023/08/22 15:28:48;;;;;;;;;;;;;;;33.01;35.28;96984.44;4197505;28;5828;-71
2023/08/22 15:30:56;;;;;;;;;;;;;;;33.01;35.61;96986.38;4197602;28;5824;-71